Time;durP1;ratioP1;P1;durP2;ratioP2;P2;SDS_P1;SDS_P2;PMS_P1;PMS_P2;Temp;Humidity;BMP_temperature;BMP_pressure;BME280_temperature;BME280_humidity;BME280_pressure;Samples;Min_cycle;Max_cycle;Signal;HPM_P1;HPM_P2
2021/05/15 00:02:13;;;;;;;4.13;3.42;;;19.70;55.50;;;;;;5055962;28;20220;-74
2021/05/15 00:04:39;;;;;;;4.68;3.40;;;19.70;55.50;;;;;;5056438;28;20171;-72
2021/05/15 00:07:04;;;;;;;4.55;3.72;;;19.70;55.50;;;;;;5055990;28;20228;-72
2021/05/15 00:09:30;;;;;;;3.60;3.25;;;19.70;55.50;;;;;;5056161;28;20526;-71
2021/05/15 00:11:55;;;;;;;4.40;3.38;;;19.60;55.50;;;;;;5056330;28;20183;-71
2021/05/15 00:14:21;;;;;;;3.65;3.35;;;19.60;55.50;;;;;;5055638;28;20178;-71
2021/05/15 00:16:46;;;;;;;4.82;3.40;;;19.60;55.50;;;;;;5055850;28;20209;-72
2021/05/15 00:19:12;;;;;;;3.95;3.42;;;19.60;55.50;;;;;;5056036;28;20182;-72
2021/05/15 00:21:37;;;;;;;3.75;3.45;;;19.60;55.50;;;;;;5055303;28;20179;-72
2021/05/15 00:24:03;;;;;;;5.70;3.75;;;19.60;55.50;;;;;;5056093;28;20182;-71
2021/05/15 00:26:29;;;;;;;4.25;3.30;;;19.60;55.50;;;;;;5055939;28;20170;-70
2021/05/15 00:28:55;;;;;;;4.10;3.33;;;19.60;55.50;;;;;;5054779;28;20579;-71
2021/05/15 00:31:20;;;;;;;4.70;3.45;;;19.60;55.50;;;;;;5056202;28;20183;-71
2021/05/15 00:33:46;;;;;;;3.55;3.28;;;19.60;55.50;;;;;;5055707;28;20645;-72
2021/05/15 00:36:12;;;;;;;3.90;3.50;;;19.60;55.50;;;;;;5055349;28;20186;-73
2021/05/15 00:38:37;;;;;;;4.25;3.85;;;19.60;55.50;;;;;;5055701;28;20221;-72
2021/05/15 00:41:03;;;;;;;4.63;3.58;;;19.60;56.10;;;;;;5055657;28;20179;-72
2021/05/15 00:43:29;;;;;;;3.97;3.58;;;19.60;55.50;;;;;;5055023;28;20262;-71
2021/05/15 00:45:54;;;;;;;3.20;2.90;;;19.60;55.50;;;;;;5055594;28;20167;-72
2021/05/15 00:48:20;;;;;;;3.95;3.50;;;19.50;55.40;;;;;;5055811;28;20243;-72
2021/05/15 00:50:45;;;;;;;4.03;3.63;;;19.60;55.50;;;;;;5054615;28;20542;-71
2021/05/15 00:53:11;;;;;;;4.75;3.42;;;19.50;55.40;;;;;;5055664;28;20171;-72
2021/05/15 00:55:36;;;;;;;3.90;3.22;;;19.60;55.50;;;;;;5055267;28;20167;-71
2021/05/15 00:58:02;;;;;;;4.20;2.95;;;19.50;55.50;;;;;;5054622;28;20282;-73
2021/05/15 01:00:28;;;;;;;4.03;3.53;;;19.50;55.40;;;;;;5055692;28;20176;-72
2021/05/15 01:02:54;;;;;;;3.72;3.17;;;19.50;55.40;;;;;;5054954;28;20332;-73
2021/05/15 01:05:19;;;;;;;3.45;3.15;;;19.50;55.40;;;;;;5054831;28;20171;-72
2021/05/15 01:07:45;;;;;;;4.25;3.78;;;19.50;55.50;;;;;;5054941;28;20210;-71
2021/05/15 01:10:11;;;;;;;4.00;3.30;;;19.50;55.40;;;;;;5055007;28;20178;-71
2021/05/15 01:12:55;;;;;;;4.25;3.47;;;19.50;55.50;;;;;;5054185;28;20182;-71
2021/05/15 01:15:25;;;;;;;4.30;3.75;;;19.50;55.50;;;;;;5055480;28;20186;-70
2021/05/15 01:17:54;;;;;;;4.03;3.55;;;19.50;55.50;;;;;;5054274;28;20179;-72
2021/05/15 01:20:20;;;;;;;3.60;3.30;;;19.50;55.50;;;;;;5055118;28;20186;-71
2021/05/15 01:22:46;;;;;;;4.07;3.67;;;19.50;55.50;;;;;;5054663;28;20182;-71
2021/05/15 01:25:12;;;;;;;3.55;3.25;;;19.50;55.50;;;;;;5054308;28;20175;-71
2021/05/15 01:27:38;;;;;;;3.63;3.30;;;19.40;55.50;;;;;;5054462;28;20257;-70
2021/05/15 01:30:05;;;;;;;3.90;3.40;;;19.40;55.40;;;;;;5054781;28;20701;-71
2021/05/15 01:32:31;;;;;;;3.45;3.15;;;19.40;55.50;;;;;;5053340;28;20202;-71
2021/05/15 01:34:56;;;;;;;3.75;3.28;;;19.40;55.40;;;;;;5054774;28;20171;-73
2021/05/15 01:37:22;;;;;;;3.63;3.25;;;19.50;55.50;;;;;;5054774;28;20172;-71
2021/05/15 01:39:47;;;;;;;3.33;3.03;;;19.50;55.50;;;;;;5053613;28;20530;-73
2021/05/15 01:42:13;;;;;;;3.85;3.42;;;19.40;55.40;;;;;;5054879;28;20214;-72
2021/05/15 01:44:38;;;;;;;3.97;3.30;;;19.50;55.50;;;;;;5054595;28;20175;-71
2021/05/15 01:47:04;;;;;;;3.78;3.45;;;19.40;55.50;;;;;;5053917;28;20241;-72
2021/05/15 01:49:29;;;;;;;3.72;3.35;;;19.40;55.50;;;;;;5054843;28;20220;-71
2021/05/15 01:51:55;;;;;;;4.55;3.58;;;19.40;55.50;;;;;;5054104;28;20256;-72
2021/05/15 01:54:20;;;;;;;4.07;3.70;;;19.40;55.50;;;;;;5053661;28;20646;-71
2021/05/15 01:56:46;;;;;;;3.67;3.38;;;19.40;55.50;;;;;;5054326;28;20655;-73
2021/05/15 01:59:11;;;;;;;3.50;3.20;;;19.40;55.60;;;;;;5054480;28;20175;-73
2021/05/15 02:01:37;;;;;;;4.90;3.55;;;19.40;55.50;;;;;;5053458;28;20163;-73
2021/05/15 02:04:03;;;;;;;4.20;3.58;;;19.40;55.50;;;;;;5054200;28;21119;-72
2021/05/15 02:06:29;;;;;;;3.67;3.38;;;19.40;55.50;;;;;;5054212;28;20258;-71
2021/05/15 02:08:54;;;;;;;3.55;3.22;;;19.40;55.50;;;;;;5052994;28;20643;-71
2021/05/15 02:11:19;;;;;;;4.20;3.88;;;19.40;55.50;;;;;;5054378;28;20217;-71
2021/05/15 02:13:46;;;;;;;3.60;3.40;;;19.40;55.50;;;;;;5053105;28;20550;-71
2021/05/15 02:16:11;;;;;;;3.85;3.30;;;19.40;55.50;;;;;;5054179;28;20249;-71
2021/05/15 02:18:37;;;;;;;3.47;3.08;;;19.30;55.50;;;;;;5053740;28;20227;-71
2021/05/15 02:21:02;;;;;;;4.10;3.38;;;19.30;55.50;;;;;;5052532;28;20294;-71
2021/05/15 02:23:28;;;;;;;3.63;3.25;;;19.30;55.50;;;;;;5053923;28;20174;-71
2021/05/15 02:25:54;;;;;;;3.65;3.35;;;19.30;55.50;;;;;;5053635;28;20174;-71
2021/05/15 02:28:20;;;;;;;4.10;3.70;;;19.30;55.50;;;;;;5052984;28;20227;-70
2021/05/15 02:30:45;;;;;;;3.70;3.40;;;19.30;55.60;;;;;;5053530;28;20193;-71
2021/05/15 02:33:11;;;;;;;3.58;3.28;;;19.30;55.50;;;;;;5053723;28;20183;-71
2021/05/15 02:35:36;;;;;;;3.80;3.50;;;19.30;55.60;;;;;;5052749;28;20171;-72
2021/05/15 02:38:04;;;;;;;4.72;3.40;;;19.30;55.50;;;;;;5053568;28;20262;-74
2021/05/15 02:40:29;;;;;;;3.33;3.10;;;19.30;55.60;;;;;;5053588;28;20644;-72
2021/05/15 02:42:55;;;;;;;3.40;3.10;;;19.30;55.50;;;;;;5052529;28;20179;-74
2021/05/15 02:45:23;;;;;;;3.78;3.38;;;19.30;55.60;;;;;;5053737;28;20174;-72
2021/05/15 02:47:49;;;;;;;3.85;3.42;;;19.30;55.60;;;;;;5053063;28;20246;-73
2021/05/15 02:50:15;;;;;;;3.78;3.47;;;19.30;55.60;;;;;;5052697;28;20668;-72
2021/05/15 02:52:41;;;;;;;3.45;3.15;;;19.30;55.60;;;;;;5053024;28;20266;-71
2021/05/15 02:55:08;;;;;;;3.50;3.20;;;19.30;55.50;;;;;;5053401;28;20255;-73
2021/05/15 02:57:34;;;;;;;3.63;3.33;;;19.30;55.60;;;;;;5052463;28;20293;-73
2021/05/15 03:00:05;;;;;;;3.90;3.58;;;19.30;55.60;;;;;;5053311;28;20610;-74
2021/05/15 03:02:30;;;;;;;3.85;3.55;;;19.30;55.60;;;;;;5053349;28;20183;-73
2021/05/15 03:04:55;;;;;;;3.78;3.33;;;19.30;55.60;;;;;;5052108;28;20574;-73
2021/05/15 03:07:21;;;;;;;3.53;3.22;;;19.20;55.50;;;;;;5053020;28;20236;-72
2021/05/15 03:09:46;;;;;;;3.65;3.35;;;19.20;55.50;;;;;;5052881;28;20183;-71
2021/05/15 03:12:12;;;;;;;4.25;3.50;;;19.20;55.50;;;;;;5052498;28;20182;-72
2021/05/15 03:14:38;;;;;;;3.80;3.50;;;19.20;55.50;;;;;;5052779;28;20199;-71
2021/05/15 03:17:04;;;;;;;3.55;3.25;;;19.20;55.50;;;;;;5052111;28;20175;-72
2021/05/15 03:19:29;;;;;;;4.28;3.47;;;19.20;55.50;;;;;;5052864;28;20179;-71
2021/05/15 03:21:55;;;;;;;3.92;3.63;;;19.20;55.50;;;;;;5052685;28;20216;-72
2021/05/15 03:24:20;;;;;;;3.40;3.17;;;19.20;55.50;;;;;;5052395;28;20191;-71
2021/05/15 03:26:46;;;;;;;3.80;3.50;;;19.20;55.60;;;;;;5052334;28;20172;-71
2021/05/15 03:29:11;;;;;;;4.25;3.85;;;19.20;55.50;;;;;;5052733;28;20227;-72
2021/05/15 03:31:37;;;;;;;3.47;3.15;;;19.20;55.60;;;;;;5051773;28;20172;-71
2021/05/15 03:34:02;;;;;;;3.60;3.30;;;19.20;55.60;;;;;;5052507;28;20178;-73
2021/05/15 03:36:28;;;;;;;3.40;3.20;;;19.20;55.50;;;;;;5052825;28;20588;-72
2021/05/15 03:38:53;;;;;;;3.40;3.17;;;19.20;55.60;;;;;;5051784;28;20183;-72
2021/05/15 03:41:19;;;;;;;3.58;3.33;;;19.20;55.50;;;;;;5052742;28;20194;-73
2021/05/15 03:43:45;;;;;;;3.92;3.63;;;19.10;55.50;;;;;;5052447;28;20175;-73
2021/05/15 03:46:10;;;;;;;4.22;3.85;;;19.20;55.60;;;;;;5051920;28;20171;-73
2021/05/15 03:48:36;;;;;;;3.70;3.40;;;19.20;55.60;;;;;;5052345;28;20210;-72
2021/05/15 03:51:01;;;;;;;3.75;3.35;;;19.20;55.60;;;;;;5052386;28;20174;-71
2021/05/15 03:53:27;;;;;;;3.85;3.55;;;19.10;55.60;;;;;;5052007;28;20171;-71
2021/05/15 03:55:52;;;;;;;3.50;3.20;;;19.20;55.60;;;;;;5052270;28;20171;-72
2021/05/15 03:58:18;;;;;;;4.13;3.75;;;19.10;55.50;;;;;;5052369;28;20538;-75
2021/05/15 04:00:43;;;;;;;4.55;3.78;;;19.20;55.60;;;;;;5051383;28;20202;-73
2021/05/15 04:03:09;;;;;;;3.90;3.60;;;19.10;55.60;;;;;;5052404;28;20261;-73
2021/05/15 04:05:34;;;;;;;3.97;3.63;;;19.10;55.60;;;;;;5052028;28;20253;-71
2021/05/15 04:08:00;;;;;;;3.50;3.25;;;19.10;55.60;;;;;;5051583;28;20301;-72
2021/05/15 04:10:25;;;;;;;3.55;3.22;;;19.10;55.60;;;;;;5052669;28;20191;-71
2021/05/15 04:13:06;;;;;;;3.50;3.30;;;19.10;55.60;;;;;;5052065;28;20210;-71
2021/05/15 04:15:42;;;;;;;4.30;3.90;;;19.10;55.60;;;;;;5051535;28;20179;-72
2021/05/15 04:18:11;;;;;;;4.13;3.75;;;19.10;55.60;;;;;;5052185;28;20175;-72
2021/05/15 04:20:37;;;;;;;3.67;3.25;;;19.10;55.60;;;;;;5051427;28;20236;-71
2021/05/15 04:23:02;;;;;;;3.60;3.40;;;19.10;55.60;;;;;;5052336;28;20175;-72
2021/05/15 04:25:28;;;;;;;3.65;3.35;;;19.10;55.60;;;;;;5052155;28;20171;-70
2021/05/15 04:27:55;;;;;;;4.03;3.72;;;19.10;55.60;;;;;;5050846;28;20230;-71
2021/05/15 04:30:20;;;;;;;3.65;3.35;;;19.10;55.60;;;;;;5052151;28;20246;-70
2021/05/15 04:32:46;;;;;;;4.10;3.72;;;19.10;55.60;;;;;;5051672;28;20654;-71
2021/05/15 04:35:11;;;;;;;3.75;3.45;;;19.10;55.60;;;;;;5051636;28;20534;-72
2021/05/15 04:37:37;;;;;;;3.92;3.63;;;19.10;55.60;;;;;;5052005;28;20631;-71
2021/05/15 04:40:03;;;;;;;3.50;3.28;;;19.10;55.60;;;;;;5052050;28;20182;-73
2021/05/15 04:42:29;;;;;;;3.65;3.35;;;19.10;55.60;;;;;;5051305;28;20194;-71
2021/05/15 04:44:54;;;;;;;3.83;3.53;;;19.10;55.60;;;;;;5053193;28;20164;-72
2021/05/15 04:47:20;;;;;;;4.10;3.70;;;19.10;55.60;;;;;;5037902;28;20214;-72
2021/05/15 04:49:45;;;;;;;4.15;3.85;;;19.10;55.60;;;;;;5054799;28;20630;-71
2021/05/15 04:52:11;;;;;;;3.97;3.67;;;19.10;55.60;;;;;;5055650;28;20541;-71
2021/05/15 04:54:36;;;;;;;3.63;3.40;;;19.10;55.60;;;;;;5055348;28;20182;-71
2021/05/15 04:57:02;;;;;;;3.47;3.17;;;19.10;55.60;;;;;;5054823;28;20202;-73
2021/05/15 04:59:27;;;;;;;3.67;3.45;;;19.10;55.60;;;;;;5055718;28;20266;-71
2021/05/15 05:01:53;;;;;;;4.68;4.10;;;19.10;55.60;;;;;;5055020;28;20317;-74
2021/05/15 05:04:18;;;;;;;3.90;3.40;;;19.10;55.60;;;;;;5055096;28;20163;-73
2021/05/15 05:06:44;;;;;;;3.72;3.42;;;19.10;55.60;;;;;;5054867;28;20249;-71
2021/05/15 05:09:09;;;;;;;4.00;3.58;;;19.10;55.60;;;;;;5055610;28;20707;-71
2021/05/15 05:11:35;;;;;;;4.50;3.35;;;19.10;55.60;;;;;;5054477;28;20176;-71
2021/05/15 05:14:00;;;;;;;4.15;3.85;;;19.10;55.50;;;;;;5055232;28;20174;-71
2021/05/15 05:16:26;;;;;;;4.07;3.72;;;19.10;55.60;;;;;;5055074;28;20171;-71
2021/05/15 05:18:51;;;;;;;3.88;3.38;;;19.00;55.50;;;;;;5054340;28;20166;-71
2021/05/15 05:21:17;;;;;;;4.13;3.78;;;19.00;55.60;;;;;;5055050;28;20524;-71
2021/05/15 05:23:42;;;;;;;3.40;3.20;;;19.00;55.50;;;;;;5054073;28;20171;-71
2021/05/15 05:26:08;;;;;;;4.30;4.00;;;19.00;55.60;;;;;;5055015;28;20187;-71
2021/05/15 05:28:35;;;;;;;3.97;3.67;;;19.00;55.60;;;;;;5054389;28;20235;-70
2021/05/15 05:31:03;;;;;;;4.07;3.78;;;19.00;55.60;;;;;;5054093;28;20174;-71
2021/05/15 05:33:28;;;;;;;4.40;4.00;;;19.00;55.60;;;;;;5055067;28;20179;-71
2021/05/15 05:35:54;;;;;;;3.88;3.58;;;19.00;55.60;;;;;;5054492;28;20240;-72
2021/05/15 05:38:19;;;;;;;3.92;3.63;;;19.00;55.60;;;;;;5054251;28;20183;-72
2021/05/15 05:40:45;;;;;;;3.65;3.42;;;19.00;55.60;;;;;;5054588;28;20634;-72
2021/05/15 05:43:10;;;;;;;4.40;3.50;;;19.00;55.60;;;;;;5054753;28;20639;-73
2021/05/15 05:45:36;;;;;;;3.72;3.42;;;19.00;55.60;;;;;;5053648;28;20209;-72
2021/05/15 05:48:01;;;;;;;3.75;3.50;;;19.00;55.60;;;;;;5054614;28;20220;-72
2021/05/15 05:50:27;;;;;;;3.90;3.60;;;19.00;55.60;;;;;;5054696;28;20175;-72
2021/05/15 05:52:52;;;;;;;3.83;3.55;;;19.00;55.60;;;;;;5053509;28;20225;-72
2021/05/15 05:55:21;;;;;;;3.95;3.50;;;19.00;55.60;;;;;;5054382;28;20175;-72
2021/05/15 05:57:46;;;;;;;3.40;3.20;;;19.00;55.60;;;;;;5053362;28;20711;-74
2021/05/15 06:00:12;;;;;;;3.83;3.53;;;19.00;55.60;;;;;;5053989;28;20206;-73
2021/05/15 06:02:40;;;;;;;4.00;3.70;;;19.00;55.60;;;;;;5054235;28;20186;-73
2021/05/15 06:05:07;;;;;;;3.70;3.40;;;19.10;55.60;;;;;;5054370;28;20274;-73
2021/05/15 06:07:32;;;;;;;3.30;3.10;;;19.00;55.60;;;;;;5053194;28;20260;-71
2021/05/15 06:09:58;;;;;;;4.00;3.60;;;19.00;55.60;;;;;;5054162;28;20254;-71
2021/05/15 06:12:23;;;;;;;3.80;3.50;;;19.00;55.60;;;;;;5054156;28;20206;-71
2021/05/15 06:14:49;;;;;;;4.05;3.75;;;19.00;55.60;;;;;;5052886;28;20208;-72
2021/05/15 06:17:14;;;;;;;3.60;3.40;;;19.00;55.60;;;;;;5054361;28;20504;-72
2021/05/15 06:19:40;;;;;;;4.00;3.70;;;19.10;55.70;;;;;;5053757;28;20192;-72
2021/05/15 06:22:07;;;;;;;3.72;3.50;;;19.00;55.60;;;;;;5053265;28;20210;-72
2021/05/15 06:24:32;;;;;;;4.00;3.70;;;19.00;55.60;;;;;;5053768;28;20171;-70
2021/05/15 06:26:58;;;;;;;4.25;3.95;;;19.00;55.60;;;;;;5052853;28;20203;-71
2021/05/15 06:29:23;;;;;;;4.00;3.70;;;19.00;55.60;;;;;;5053375;28;20227;-70
2021/05/15 06:31:49;;;;;;;3.70;3.40;;;19.00;55.60;;;;;;5053555;28;20211;-71
2021/05/15 06:34:14;;;;;;;4.20;3.90;;;19.30;56.40;;;;;;5053109;28;20175;-72
2021/05/15 06:36:40;;;;;;;3.97;3.58;;;19.10;55.60;;;;;;5053023;28;20206;-72
2021/05/15 06:39:05;;;;;;;3.88;3.58;;;19.10;55.60;;;;;;5053332;28;20270;-73
2021/05/15 06:41:31;;;;;;;4.10;3.80;;;19.00;55.60;;;;;;5052667;28;20174;-72
2021/05/15 06:43:56;;;;;;;4.60;3.80;;;19.10;55.60;;;;;;5053212;28;20171;-75
2021/05/15 06:46:22;;;;;;;4.38;3.65;;;19.00;55.60;;;;;;5053773;28;20194;-73
2021/05/15 06:48:47;;;;;;;4.35;4.05;;;19.00;55.60;;;;;;5052397;28;20211;-71
2021/05/15 06:51:13;;;;;;;3.95;3.65;;;19.00;55.60;;;;;;5053790;28;20533;-72
2021/05/15 06:53:38;;;;;;;4.35;4.05;;;19.00;55.60;;;;;;5053183;28;20537;-72
2021/05/15 06:56:04;;;;;;;3.97;3.67;;;19.00;55.70;;;;;;5052442;28;20178;-74
2021/05/15 06:58:29;;;;;;;4.00;3.70;;;19.00;55.70;;;;;;5053082;28;20175;-74
2021/05/15 07:00:55;;;;;;;3.53;3.33;;;19.00;55.70;;;;;;5052925;28;20516;-75
2021/05/15 07:03:20;;;;;;;4.40;4.10;;;19.00;55.70;;;;;;5052369;28;20183;-74
2021/05/15 07:05:46;;;;;;;3.92;3.60;;;19.00;55.70;;;;;;5052987;28;20183;-72
2021/05/15 07:08:13;;;;;;;4.05;3.65;;;18.90;56.30;;;;;;5052823;28;20213;-71
2021/05/15 07:10:38;;;;;;;4.53;4.13;;;19.00;55.70;;;;;;5052155;28;20175;-70
2021/05/15 07:13:06;;;;;;;4.30;4.00;;;19.00;55.70;;;;;;5052801;28;20202;-72
2021/05/15 07:15:32;;;;;;;3.90;3.70;;;19.00;55.70;;;;;;5052857;28;20629;-72
2021/05/15 07:18:00;;;;;;;4.07;3.78;;;19.00;55.70;;;;;;5052027;28;20209;-73
2021/05/15 07:20:25;;;;;;;4.40;4.07;;;19.00;55.70;;;;;;5035827;28;20184;-73
2021/05/15 07:22:51;;;;;;;3.72;3.42;;;19.00;55.60;;;;;;5052726;28;20177;-69
2021/05/15 07:25:16;;;;;;;4.22;3.83;;;19.00;55.70;;;;;;5052142;28;20510;-72
2021/05/15 07:27:42;;;;;;;3.95;3.65;;;19.00;55.70;;;;;;5052113;28;20258;-72
2021/05/15 07:30:08;;;;;;;4.90;4.50;;;19.10;55.60;;;;;;5052788;28;20525;-73
2021/05/15 07:32:34;;;;;;;4.50;4.10;;;19.10;55.60;;;;;;5051886;28;20284;-72
2021/05/15 07:34:59;;;;;;;4.22;3.92;;;19.10;55.50;;;;;;5052701;28;20625;-73
2021/05/15 07:37:25;;;;;;;4.65;4.25;;;19.10;55.60;;;;;;5052403;28;20529;-74
2021/05/15 07:39:50;;;;;;;4.57;4.28;;;19.10;55.70;;;;;;5052225;28;20175;-73
2021/05/15 07:42:16;;;;;;;4.60;4.20;;;19.20;55.70;;;;;;5052727;28;20170;-71
2021/05/15 07:44:41;;;;;;;5.47;4.93;;;19.10;55.70;;;;;;5051845;28;20173;-74
2021/05/15 07:47:07;;;;;;;5.65;5.07;;;19.20;55.70;;;;;;5052657;28;20293;-73
2021/05/15 07:49:32;;;;;;;7.20;4.90;;;19.20;55.60;;;;;;5052563;28;20164;-72
2021/05/15 07:51:58;;;;;;;6.57;5.18;;;19.20;55.50;;;;;;5052013;28;20198;-72
2021/05/15 07:54:24;;;;;;;5.88;5.15;;;19.30;55.50;;;;;;5052618;28;20179;-71
2021/05/15 07:56:50;;;;;;;4.65;4.25;;;19.40;55.40;;;;;;5052323;28;20182;-74
2021/05/15 07:59:16;;;;;;;6.20;5.10;;;19.40;55.40;;;;;;5052058;28;20205;-77
2021/05/15 08:01:42;;;;;;;5.53;4.47;;;19.40;55.30;;;;;;5051591;28;20558;-76
2021/05/15 08:04:07;;;;;;;6.32;5.40;;;19.50;55.40;;;;;;5052673;28;20665;-72
2021/05/15 08:06:33;;;;;;;5.03;4.55;;;19.50;55.40;;;;;;5051944;28;20175;-72
2021/05/15 08:08:58;;;;;;;5.43;4.93;;;19.50;55.30;;;;;;5052616;28;20215;-77
2021/05/15 08:11:24;;;;;;;5.97;4.65;;;19.50;55.50;;;;;;5052843;28;20182;-76
2021/05/15 08:13:49;;;;;;;5.30;4.90;;;19.50;55.40;;;;;;5051521;28;20512;-76
2021/05/15 08:16:16;;;;;;;6.82;5.95;;;19.40;55.40;;;;;;5052734;28;20175;-75
2021/05/15 08:18:42;;;;;;;7.65;6.88;;;19.50;55.50;;;;;;5052213;28;20653;-75
2021/05/15 08:21:07;;;;;;;7.57;6.25;;;19.40;55.50;;;;;;5055311;28;20171;-75
2021/05/15 08:23:35;;;;;;;6.45;5.85;;;19.40;55.60;;;;;;5056478;28;20261;-74
2021/05/15 08:26:10;;;;;;;5.97;5.45;;;19.40;55.60;;;;;;5056263;28;20175;-75
2021/05/15 08:28:40;;;;;;;6.78;6.15;;;19.40;55.60;;;;;;5037348;28;20720;-75
2021/05/15 08:31:07;;;;;;;5.45;4.88;;;19.40;55.60;;;;;;5039098;28;20524;-74
2021/05/15 08:33:32;;;;;;;7.53;5.97;;;19.30;55.60;;;;;;5037602;28;20182;-76
2021/05/15 08:35:58;;;;;;;6.63;6.00;;;19.30;55.60;;;;;;5056744;28;20170;-74
2021/05/15 08:38:23;;;;;;;7.15;6.20;;;19.40;55.60;;;;;;5055971;28;20175;-74
2021/05/15 08:40:49;;;;;;;9.40;7.75;;;19.30;55.50;;;;;;5055337;28;20270;-74
2021/05/15 08:43:15;;;;;;;7.80;7.05;;;19.40;55.50;;;;;;5056159;28;20179;-73
2021/05/15 08:45:40;;;;;;;9.82;7.75;;;19.40;55.50;;;;;;5038071;28;20186;-75
2021/05/15 08:48:07;;;;;;;8.55;7.65;;;19.40;55.60;;;;;;5055252;28;20210;-74
2021/05/15 08:50:33;;;;;;;10.88;7.95;;;19.40;55.50;;;;;;5055819;28;20221;-75
2021/05/15 08:53:00;;;;;;;9.25;8.27;;;19.40;55.50;;;;;;5055783;28;20171;-75
2021/05/15 08:55:27;;;;;;;9.98;8.43;;;19.40;55.40;;;;;;5037425;28;20179;-74
2021/05/15 08:57:53;;;;;;;9.63;8.18;;;19.50;55.40;;;;;;5055294;28;20179;-74
2021/05/15 09:00:21;;;;;;;6.65;6.05;;;19.60;55.30;;;;;;5055756;28;20656;-74
2021/05/15 09:02:48;;;;;;;6.40;5.68;;;19.70;55.10;;;;;;5054399;28;20566;-74
2021/05/15 09:05:15;;;;;;;6.53;5.88;;;19.80;54.90;;;;;;5055530;28;20182;-72
2021/05/15 09:07:44;;;;;;;6.10;5.50;;;19.80;54.70;;;;;;5057592;28;20676;-79
2021/05/15 09:10:10;;;;;;;6.43;5.88;;;19.80;54.60;;;;;;5060345;28;20182;-81
2021/05/15 09:12:35;;;;;;;6.80;6.13;;;19.90;54.70;;;;;;5055180;28;20200;-71
2021/05/15 09:15:03;;;;;;;6.88;5.88;;;19.90;54.60;;;;;;5055655;28;20172;-71
2021/05/15 09:17:29;;;;;;;7.53;6.00;;;19.80;55.00;;;;;;5054822;28;20236;-70
2021/05/15 09:19:54;;;;;;;7.35;5.90;;;19.80;55.20;;;;;;5037153;28;20175;-72
2021/05/15 09:22:27;;;;;;;6.30;5.72;;;19.80;55.10;;;;;;5055704;28;20181;-71
2021/05/15 09:24:52;;;;;;;7.82;6.22;;;19.80;55.10;;;;;;5054818;28;20182;-71
2021/05/15 09:27:18;;;;;;;9.80;5.90;;;19.90;55.30;;;;;;5054974;28;20203;-70
2021/05/15 09:29:49;;;;;;;8.15;6.32;;;19.80;55.30;;;;;;5054520;28;20261;-73
2021/05/15 09:32:27;;;;;;;6.22;5.70;;;19.90;55.30;;;;;;5054830;28;20207;-74
2021/05/15 09:34:53;;;;;;;7.50;5.93;;;19.90;55.30;;;;;;5052848;28;20256;-73
2021/05/15 09:37:35;;;;;;;11.05;6.40;;;19.80;55.20;;;;;;5053956;28;20232;-73
2021/05/15 09:40:15;;;;;;;6.72;6.13;;;19.90;55.20;;;;;;5034853;28;20179;-75
2021/05/15 09:42:47;;;;;;;7.65;6.18;;;19.90;55.80;;;;;;5042633;28;20596;-73
2021/05/15 09:45:22;;;;;;;8.27;6.05;;;19.90;55.10;;;;;;5053946;28;20190;-73
2021/05/15 09:48:01;;;;;;;6.80;6.03;;;19.90;55.20;;;;;;5054555;28;20210;-73
2021/05/15 09:50:31;;;;;;;8.15;6.38;;;19.80;55.20;;;;;;5054686;28;20175;-72
2021/05/15 09:53:11;;;;;;;8.18;6.50;;;19.80;55.30;;;;;;5053728;28;20270;-73
2021/05/15 09:55:37;;;;;;;7.43;6.72;;;19.80;55.30;;;;;;5054316;28;20593;-72
2021/05/15 09:58:04;;;;;;;7.47;6.57;;;19.70;55.30;;;;;;5053436;28;20187;-75
2021/05/15 10:00:41;;;;;;;7.15;6.47;;;19.70;55.20;;;;;;5054926;28;20171;-72
2021/05/15 10:03:17;;;;;;;7.00;6.30;;;19.70;55.20;;;;;;5054264;28;20261;-73
2021/05/15 10:05:42;;;;;;;7.63;6.93;;;19.80;55.10;;;;;;5053509;28;20542;-72
2021/05/15 10:08:08;;;;;;;6.68;6.03;;;20.00;54.70;;;;;;5053861;28;20195;-72
2021/05/15 10:10:33;;;;;;;7.32;6.68;;;19.90;54.60;;;;;;5036262;28;20254;-71
2021/05/15 10:13:00;;;;;;;7.32;6.72;;;19.90;54.70;;;;;;5035780;28;20175;-71
2021/05/15 10:15:25;;;;;;;7.65;6.95;;;19.90;54.70;;;;;;5054219;28;20709;-71
2021/05/15 10:17:51;;;;;;;8.00;6.80;;;19.80;54.70;;;;;;5035964;28;20266;-72
2021/05/15 10:20:16;;;;;;;7.25;6.60;;;19.90;54.70;;;;;;5035385;28;20552;-71
2021/05/15 10:22:43;;;;;;;8.32;7.53;;;19.80;54.70;;;;;;5035804;28;20463;-72
2021/05/15 10:25:12;;;;;;;8.00;6.93;;;19.80;54.60;;;;;;5036369;28;20182;-73
2021/05/15 10:27:38;;;;;;;7.18;6.57;;;19.90;54.50;;;;;;5035221;28;20254;-71
2021/05/15 10:30:18;;;;;;;7.25;6.50;;;19.80;54.50;;;;;;5036191;28;20236;-72
2021/05/15 10:32:57;;;;;;;7.75;6.90;;;19.90;54.60;;;;;;5053835;28;20241;-73
2021/05/15 10:35:33;;;;;;;7.28;6.53;;;19.80;54.60;;;;;;5053173;28;20585;-74
2021/05/15 10:38:11;;;;;;;7.60;6.82;;;19.80;54.60;;;;;;5053974;28;20178;-73
2021/05/15 10:40:50;;;;;;;7.43;6.68;;;19.90;54.50;;;;;;5052686;28;20175;-74
2021/05/15 10:43:32;;;;;;;7.63;6.63;;;20.00;54.20;;;;;;5052889;28;20229;-74
2021/05/15 10:45:58;;;;;;;7.95;7.13;;;20.10;54.10;;;;;;5053657;28;20168;-73
2021/05/15 10:48:26;;;;;;;6.90;6.20;;;20.10;53.90;;;;;;5052950;28;20221;-73
2021/05/15 10:50:59;;;;;;;7.78;6.55;;;20.10;54.00;;;;;;5053390;28;20217;-70
2021/05/15 10:53:29;;;;;;;7.55;6.85;;;20.10;54.00;;;;;;5053585;28;20190;-70
2021/05/15 10:56:01;;;;;;;7.70;6.53;;;20.10;53.90;;;;;;5052099;28;20175;-69
2021/05/15 10:58:38;;;;;;;7.50;6.80;;;20.10;53.90;;;;;;5053218;28;20283;-70
2021/05/15 11:01:08;;;;;;;8.98;8.15;;;20.20;53.80;;;;;;5053355;28;20190;-71
2021/05/15 11:03:34;;;;;;;8.52;7.70;;;20.20;54.10;;;;;;5052257;28;20179;-70
2021/05/15 11:06:11;;;;;;;9.57;8.57;;;20.20;54.10;;;;;;5053168;28;20232;-71
2021/05/15 11:08:37;;;;;;;8.65;7.75;;;20.20;54.10;;;;;;5052169;28;20207;-71
2021/05/15 11:11:06;;;;;;;10.10;8.25;;;20.10;54.00;;;;;;5035013;28;21155;-71
2021/05/15 11:13:47;;;;;;;11.52;8.25;;;20.20;54.20;;;;;;5052996;28;20187;-72
2021/05/15 11:16:13;;;;;;;10.38;8.50;;;20.20;54.20;;;;;;5052376;28;20251;-71
2021/05/15 11:18:39;;;;;;;11.98;8.20;;;20.30;54.20;;;;;;5052548;28;20605;-71
2021/05/15 11:21:06;;;;;;;8.05;7.13;;;20.30;54.10;;;;;;5052682;28;20170;-71
2021/05/15 11:23:34;;;;;;;8.05;7.25;;;20.30;54.20;;;;;;5052078;28;20181;-68
2021/05/15 11:26:02;;;;;;;8.77;7.85;;;20.40;54.20;;;;;;5052864;28;20212;-68
2021/05/15 11:28:29;;;;;;;8.55;7.65;;;20.50;54.10;;;;;;5052703;28;20230;-69
2021/05/15 11:30:54;;;;;;;8.63;7.72;;;20.50;53.90;;;;;;5051720;28;20266;-76
2021/05/15 11:33:21;;;;;;;8.57;7.78;;;20.50;53.90;;;;;;5052486;28;20271;-77
2021/05/15 11:35:48;;;;;;;9.02;8.00;;;20.50;54.10;;;;;;5052430;28;20194;-74
2021/05/15 11:38:14;;;;;;;7.97;7.20;;;20.40;54.20;;;;;;5052382;28;20194;-75
2021/05/15 11:40:45;;;;;;;8.30;7.35;;;20.40;54.20;;;;;;5052244;28;20642;-72
2021/05/15 11:43:14;;;;;;;9.25;7.78;;;20.40;54.30;;;;;;5052660;28;20207;-73
2021/05/15 11:45:40;;;;;;;9.15;7.80;;;20.40;54.20;;;;;;5033856;28;20555;-74
2021/05/15 11:48:09;;;;;;;7.75;6.88;;;20.40;54.20;;;;;;5052402;28;20202;-74
2021/05/15 11:50:35;;;;;;;9.82;7.78;;;20.40;54.20;;;;;;5051826;28;20207;-73
2021/05/15 11:53:04;;;;;;;8.55;7.65;;;20.40;54.20;;;;;;5052575;28;20649;-74
2021/05/15 11:55:30;;;;;;;7.43;6.70;;;20.30;54.20;;;;;;5051753;28;20217;-75
2021/05/15 11:57:57;;;;;;;9.35;7.68;;;20.30;54.30;;;;;;5051725;28;20179;-74
2021/05/15 12:00:25;;;;;;;7.80;6.88;;;20.30;54.40;;;;;;5052424;28;20216;-72
2021/05/15 12:02:51;;;;;;;8.48;7.60;;;20.20;54.40;;;;;;5052246;28;20262;-77
2021/05/15 12:05:16;;;;;;;8.35;6.85;;;20.20;54.50;;;;;;5051818;28;20179;-79
2021/05/15 12:07:49;;;;;;;8.82;7.72;;;20.20;54.60;;;;;;5052291;28;20689;-78
2021/05/15 12:10:16;;;;;;;10.32;7.55;;;20.10;55.40;;;;;;5052581;28;20179;-75
2021/05/15 12:12:53;;;;;;;8.55;7.03;;;20.00;54.90;;;;;;5051678;28;20170;-76
2021/05/15 12:15:19;;;;;;;7.25;6.55;;;20.00;55.00;;;;;;5036056;28;20171;-73
2021/05/15 12:17:45;;;;;;;8.10;7.30;;;19.90;55.10;;;;;;5034441;28;20171;-77
2021/05/15 12:20:11;;;;;;;8.30;7.30;;;19.90;55.10;;;;;;5051780;28;20182;-77
2021/05/15 12:22:36;;;;;;;8.50;7.15;;;19.90;55.30;;;;;;5034136;28;20179;-74
2021/05/15 12:25:08;;;;;;;10.88;7.50;;;19.90;55.40;;;;;;5052105;28;20534;-75
2021/05/15 12:27:34;;;;;;;10.05;7.47;;;19.90;55.70;;;;;;5050731;28;20222;-72
2021/05/15 12:30:00;;;;;;;8.35;6.40;;;19.90;55.60;;;;;;5052296;28;20238;-75
2021/05/15 12:32:26;;;;;;;7.47;6.60;;;19.90;55.70;;;;;;5052281;28;20179;-70
2021/05/15 12:35:07;;;;;;;10.25;7.10;;;19.90;55.60;;;;;;5051166;28;20270;-76
2021/05/15 12:37:34;;;;;;;7.70;6.53;;;20.00;55.30;;;;;;5052028;28;20262;-74
2021/05/15 12:40:07;;;;;;;10.85;6.18;;;20.10;55.20;;;;;;5051330;28;20176;-75
2021/05/15 12:42:33;;;;;;;7.07;6.40;;;20.20;54.90;;;;;;5052098;28;20178;-77
2021/05/15 12:45:08;;;;;;;7.80;6.70;;;20.20;54.80;;;;;;5051817;28;20171;-77